sensor_id;sensor_type;location;lat;lon;timestamp;pressure;altitude;pressure_sealevel;temperature;humidity
56632;BME280;42503;39.928;-75.152;2023-05-25T00:04:53;101167.75;;;25.68;38.81
56632;BME280;42503;39.928;-75.152;2023-05-25T00:14:56;101136.91;;;25.54;38.91
56632;BME280;42503;39.928;-75.152;2023-05-25T00:25:01;101178.00;;;25.78;39.04
56632;BME280;42503;39.928;-75.152;2023-05-25T00:35:05;101184.41;;;25.78;39.18
56632;BME280;42503;39.928;-75.152;2023-05-25T00:45:07;101196.78;;;25.77;39.25
56632;BME280;42503;39.928;-75.152;2023-05-25T00:55:14;101215.78;;;25.48;39.27
56632;BME280;42503;39.928;-75.152;2023-05-25T01:05:16;101267.00;;;25.67;39.30
56632;BME280;42503;39.928;-75.152;2023-05-25T01:15:19;101292.97;;;25.73;40.43
56632;BME280;42503;39.928;-75.152;2023-05-25T01:25:35;101341.13;;;25.80;40.06
56632;BME280;42503;39.928;-75.152;2023-05-25T01:35:37;101367.38;;;25.84;39.79
56632;BME280;42503;39.928;-75.152;2023-05-25T01:45:43;101367.22;;;25.75;39.95
56632;BME280;42503;39.928;-75.152;2023-05-25T01:56:02;101386.97;;;25.65;40.07
56632;BME280;42503;39.928;-75.152;2023-05-25T02:06:05;101414.88;;;25.75;39.85
56632;BME280;42503;39.928;-75.152;2023-05-25T02:16:07;101438.84;;;25.87;39.82
56632;BME280;42503;39.928;-75.152;2023-05-25T02:26:08;101433.56;;;25.85;39.56
56632;BME280;42503;39.928;-75.152;2023-05-25T02:36:10;101434.66;;;25.84;39.90
56632;BME280;42503;39.928;-75.152;2023-05-25T02:46:14;101452.34;;;25.84;39.82
56632;BME280;42503;39.928;-75.152;2023-05-25T02:56:15;101410.84;;;25.63;39.94
56632;BME280;42503;39.928;-75.152;2023-05-25T03:06:17;101455.50;;;25.78;39.91
56632;BME280;42503;39.928;-75.152;2023-05-25T03:16:19;101479.53;;;25.84;39.68
56632;BME280;42503;39.928;-75.152;2023-05-25T03:26:20;101504.75;;;25.84;40.03
56632;BME280;42503;39.928;-75.152;2023-05-25T03:36:25;101515.97;;;25.84;39.91
56632;BME280;42503;39.928;-75.152;2023-05-25T03:46:32;101522.78;;;25.78;39.86
56632;BME280;42503;39.928;-75.152;2023-05-25T03:56:34;101555.53;;;25.82;39.61
56632;BME280;42503;39.928;-75.152;2023-05-25T04:06:35;101573.81;;;25.80;39.70
56632;BME280;42503;39.928;-75.152;2023-05-25T04:16:38;101589.75;;;25.79;39.62
56632;BME280;42503;39.928;-75.152;2023-05-25T04:26:42;101566.16;;;25.62;39.64
56632;BME280;42503;39.928;-75.152;2023-05-25T04:36:46;101592.03;;;25.77;39.49
56632;BME280;42503;39.928;-75.152;2023-05-25T04:46:50;101611.97;;;25.76;39.37
56632;BME280;42503;39.928;-75.152;2023-05-25T04:56:53;101569.47;;;25.40;39.68
56632;BME280;42503;39.928;-75.152;2023-05-25T05:06:54;101631.28;;;25.77;39.83
56632;BME280;42503;39.928;-75.152;2023-05-25T05:17:00;101583.03;;;25.51;39.64
56632;BME280;42503;39.928;-75.152;2023-05-25T05:27:01;101613.91;;;25.75;39.77
56632;BME280;42503;39.928;-75.152;2023-05-25T05:37:03;101620.63;;;25.74;39.74
56632;BME280;42503;39.928;-75.152;2023-05-25T05:47:05;101617.88;;;25.69;40.05
56632;BME280;42503;39.928;-75.152;2023-05-25T05:57:06;101615.13;;;25.64;39.96
56632;BME280;42503;39.928;-75.152;2023-05-25T06:07:07;101631.91;;;25.69;39.89
56632;BME280;42503;39.928;-75.152;2023-05-25T06:17:09;101638.66;;;25.68;40.13
56632;BME280;42503;39.928;-75.152;2023-05-25T06:27:10;101632.03;;;25.59;39.68
56632;BME280;42503;39.928;-75.152;2023-05-25T06:37:13;101652.97;;;25.67;39.77
56632;BME280;42503;39.928;-75.152;2023-05-25T06:47:15;101664.47;;;25.65;39.70
56632;BME280;42503;39.928;-75.152;2023-05-25T06:57:16;101610.16;;;25.32;39.88
56632;BME280;42503;39.928;-75.152;2023-05-25T07:07:18;101673.47;;;25.62;39.76
56632;BME280;42503;39.928;-75.152;2023-05-25T07:17:19;101657.19;;;25.35;39.95
56632;BME280;42503;39.928;-75.152;2023-05-25T07:27:23;101678.09;;;25.48;40.13
56632;BME280;42503;39.928;-75.152;2023-05-25T07:37:28;101710.53;;;25.54;39.62
56632;BME280;42503;39.928;-75.152;2023-05-25T07:47:29;101717.56;;;25.51;39.57
56632;BME280;42503;39.928;-75.152;2023-05-25T07:57:31;101705.03;;;25.44;39.82
56632;BME280;42503;39.928;-75.152;2023-05-25T08:07:32;101711.78;;;25.38;39.82
56632;BME280;42503;39.928;-75.152;2023-05-25T08:17:34;101745.94;;;25.45;39.65
56632;BME280;42503;39.928;-75.152;2023-05-25T08:27:35;101752.66;;;25.44;39.51
56632;BME280;42503;39.928;-75.152;2023-05-25T08:37:40;101734.63;;;25.21;39.70
56632;BME280;42503;39.928;-75.152;2023-05-25T08:47:45;101748.50;;;25.36;39.87
56632;BME280;42503;39.928;-75.152;2023-05-25T08:58:04;101772.34;;;25.33;39.65
56632;BME280;42503;39.928;-75.152;2023-05-25T09:08:07;101794.75;;;25.33;40.06
56632;BME280;42503;39.928;-75.152;2023-05-25T09:18:13;101789.19;;;25.28;39.64
56632;BME280;42503;39.928;-75.152;2023-05-25T09:28:17;101795.09;;;25.27;39.69
56632;BME280;42503;39.928;-75.152;2023-05-25T09:38:19;101822.84;;;25.23;39.62
56632;BME280;42503;39.928;-75.152;2023-05-25T09:48:21;101836.59;;;25.15;39.68
56632;BME280;42503;39.928;-75.152;2023-05-25T09:58:22;101853.72;;;25.13;39.57
56632;BME280;42503;39.928;-75.152;2023-05-25T10:08:25;101872.41;;;25.23;39.76
56632;BME280;42503;39.928;-75.152;2023-05-25T10:18:31;101894.00;;;25.22;39.65
56632;BME280;42503;39.928;-75.152;2023-05-25T10:28:37;101896.25;;;25.20;39.52
56632;BME280;42503;39.928;-75.152;2023-05-25T10:38:42;101903.25;;;25.18;39.57
56632;BME280;42503;39.928;-75.152;2023-05-25T10:48:46;101911.97;;;25.16;39.52
56632;BME280;42503;39.928;-75.152;2023-05-25T10:59:00;101906.63;;;25.15;39.48
56632;BME280;42503;39.928;-75.152;2023-05-25T11:09:02;101933.53;;;25.16;39.75
56632;BME280;42503;39.928;-75.152;2023-05-25T11:19:13;101942.78;;;25.11;40.02
56632;BME280;42503;39.928;-75.152;2023-05-25T11:29:15;101955.94;;;25.16;39.33
56632;BME280;42503;39.928;-75.152;2023-05-25T11:39:19;101973.31;;;25.13;39.67
56632;BME280;42503;39.928;-75.152;2023-05-25T11:49:22;101972.47;;;25.12;39.68
56632;BME280;42503;39.928;-75.152;2023-05-25T11:59:26;101965.19;;;25.11;39.73
56632;BME280;42503;39.928;-75.152;2023-05-25T12:09:27;101981.72;;;25.13;39.86
56632;BME280;42503;39.928;-75.152;2023-05-25T12:19:29;101983.66;;;25.07;39.66
56632;BME280;42503;39.928;-75.152;2023-05-25T12:29:30;101997.09;;;25.15;39.61
56632;BME280;42503;39.928;-75.152;2023-05-25T12:39:33;102005.81;;;25.08;39.24
56632;BME280;42503;39.928;-75.152;2023-05-25T13:00:10;102024.00;;;25.16;39.72
56632;BME280;42503;39.928;-75.152;2023-05-25T13:10:13;102024.84;;;25.17;39.19
56632;BME280;42503;39.928;-75.152;2023-05-25T13:20:22;102006.06;;;25.07;39.65
56632;BME280;42503;39.928;-75.152;2023-05-25T13:30:24;101993.78;;;24.93;39.06
56632;BME280;42503;39.928;-75.152;2023-05-25T13:40:31;101996.56;;;25.13;39.40
56632;BME280;42503;39.928;-75.152;2023-05-25T13:50:36;101990.94;;;25.13;39.06
56632;BME280;42503;39.928;-75.152;2023-05-25T14:00:37;101978.63;;;25.14;38.65
56632;BME280;42503;39.928;-75.152;2023-05-25T14:10:42;101927.44;;;24.88;39.61
56632;BME280;42503;39.928;-75.152;2023-05-25T14:20:44;101971.03;;;25.20;39.22
56632;BME280;42503;39.928;-75.152;2023-05-25T14:30:45;101979.16;;;25.21;38.83
56632;BME280;42503;39.928;-75.152;2023-05-25T14:40:50;101981.38;;;25.24;39.11
56632;BME280;42503;39.928;-75.152;2023-05-25T14:50:54;101998.19;;;25.29;38.79
56632;BME280;42503;39.928;-75.152;2023-05-25T15:00:55;102002.09;;;25.28;38.80
56632;BME280;42503;39.928;-75.152;2023-05-25T15:21:21;102013.56;;;25.32;38.47
56632;BME280;42503;39.928;-75.152;2023-05-25T15:31:22;102015.59;;;25.21;38.57
56632;BME280;42503;39.928;-75.152;2023-05-25T15:41:27;101971.88;;;25.05;38.96
56632;BME280;42503;39.928;-75.152;2023-05-25T15:51:28;102011.59;;;25.32;38.99
56632;BME280;42503;39.928;-75.152;2023-05-25T16:01:30;101998.16;;;25.34;39.34
56632;BME280;42503;39.928;-75.152;2023-05-25T16:11:36;101987.78;;;25.35;39.13
56632;BME280;42503;39.928;-75.152;2023-05-25T16:21:37;102004.88;;;25.33;39.44
56632;BME280;42503;39.928;-75.152;2023-05-25T16:31:39;101981.34;;;25.34;39.15
56632;BME280;42503;39.928;-75.152;2023-05-25T16:41:40;101989.47;;;25.36;39.38
56632;BME280;42503;39.928;-75.152;2023-05-25T16:51:41;101961.78;;;25.29;39.30
56632;BME280;42503;39.928;-75.152;2023-05-25T17:01:46;101960.06;;;25.39;39.15
56632;BME280;42503;39.928;-75.152;2023-05-25T17:11:47;101948.84;;;25.39;38.83
56632;BME280;42503;39.928;-75.152;2023-05-25T17:21:48;101947.97;;;25.38;38.41
56632;BME280;42503;39.928;-75.152;2023-05-25T17:31:50;101941.56;;;25.32;38.66
56632;BME280;42503;39.928;-75.152;2023-05-25T17:41:51;101938.75;;;25.32;38.48
56632;BME280;42503;39.928;-75.152;2023-05-25T17:51:55;101913.53;;;25.38;38.61
56632;BME280;42503;39.928;-75.152;2023-05-25T18:01:57;101926.97;;;25.41;38.58
56632;BME280;42503;39.928;-75.152;2023-05-25T18:11:58;101915.44;;;25.47;39.21
56632;BME280;42503;39.928;-75.152;2023-05-25T18:22:00;101926.88;;;25.56;40.17
56632;BME280;42503;39.928;-75.152;2023-05-25T18:32:01;101911.09;;;25.70;41.25
56632;BME280;42503;39.928;-75.152;2023-05-25T18:42:02;101890.53;;;25.41;41.37
56632;BME280;42503;39.928;-75.152;2023-05-25T18:52:04;101909.38;;;25.74;40.85
56632;BME280;42503;39.928;-75.152;2023-05-25T19:02:06;101897.63;;;25.72;40.67
56632;BME280;42503;39.928;-75.152;2023-05-25T19:12:08;101880.81;;;25.72;40.24
56632;BME280;42503;39.928;-75.152;2023-05-25T19:22:09;101869.59;;;25.72;39.16
56632;BME280;42503;39.928;-75.152;2023-05-25T19:32:10;101876.38;;;25.66;39.89
56632;BME280;42503;39.928;-75.152;2023-05-25T19:42:12;101855.00;;;25.70;39.87
56632;BME280;42503;39.928;-75.152;2023-05-25T19:52:16;101828.84;;;25.46;39.72
56632;BME280;42503;39.928;-75.152;2023-05-25T20:02:18;101839.72;;;25.57;39.75
56632;BME280;42503;39.928;-75.152;2023-05-25T20:12:25;101808.97;;;25.42;39.68
56632;BME280;42503;39.928;-75.152;2023-05-25T20:22:26;101830.47;;;25.57;39.84
56632;BME280;42503;39.928;-75.152;2023-05-25T20:32:27;101834.94;;;25.58;39.64
56632;BME280;42503;39.928;-75.152;2023-05-25T20:42:35;101799.22;;;25.40;39.55
56632;BME280;42503;39.928;-75.152;2023-05-25T20:52:36;101844.16;;;25.64;38.99
56632;BME280;42503;39.928;-75.152;2023-05-25T21:02:37;101841.66;;;25.62;38.97
56632;BME280;42503;39.928;-75.152;2023-05-25T21:12:41;101818.69;;;25.55;38.81
56632;BME280;42503;39.928;-75.152;2023-05-25T21:22:43;101805.31;;;25.47;37.65
56632;BME280;42503;39.928;-75.152;2023-05-25T21:32:45;101831.00;;;25.59;38.08
56632;BME280;42503;39.928;-75.152;2023-05-25T21:42:46;101827.69;;;25.52;37.59
56632;BME280;42503;39.928;-75.152;2023-05-25T21:52:53;101846.72;;;25.55;37.40
56632;BME280;42503;39.928;-75.152;2023-05-25T22:02:54;101838.03;;;25.56;36.89
56632;BME280;42503;39.928;-75.152;2023-05-25T22:12:56;101817.94;;;25.44;37.60
56632;BME280;42503;39.928;-75.152;2023-05-25T22:22:57;101845.56;;;25.61;37.62
56632;BME280;42503;39.928;-75.152;2023-05-25T22:32:59;101858.47;;;25.62;37.68
56632;BME280;42503;39.928;-75.152;2023-05-25T22:43:00;101872.44;;;25.67;38.06
56632;BME280;42503;39.928;-75.152;2023-05-25T22:53:02;101857.38;;;25.58;38.17
56632;BME280;42503;39.928;-75.152;2023-05-25T23:03:03;101873.81;;;25.70;38.36
56632;BME280;42503;39.928;-75.152;2023-05-25T23:13:07;101847.59;;;25.50;37.28
56632;BME280;42503;39.928;-75.152;2023-05-25T23:23:08;101888.50;;;25.51;37.19
56632;BME280;42503;39.928;-75.152;2023-05-25T23:33:10;101919.06;;;25.53;37.35
56632;BME280;42503;39.928;-75.152;2023-05-25T23:43:15;101931.38;;;25.52;37.28
56632;BME280;42503;39.928;-75.152;2023-05-25T23:53:16;101928.03;;;25.50;37.40
